Terminal Aerodrome Forecast
Issued by NWS Burlington, VT

Home | Current Version | Previous Version | Text Only | Print | Product List | Glossary On
Versions: 1 2 3 4 5 6 7 8 9 10 11 12 13 14 15 16 17 18
000
FTUS41 KBTV 230500
TAFBTV
TAF
KBTV 230528Z 2306/2406 VRB03KT P6SM SCT015 OVC050
      TEMPO 2308/2312 BKN015
     FM231400 34007KT P6SM BKN050
     FM240000 VRB03KT P6SM FEW050=

USA.gov is the U.S. government's official web portal to all federal, state and local government web resources and services.